Time;durP1;ratioP1;P1;durP2;ratioP2;P2;SDS_P1;SDS_P2;PMS_P1;PMS_P2;Temp;Humidity;BMP_temperature;BMP_pressure;BME280_temperature;BME280_humidity;BME280_pressure;Samples;Min_cycle;Max_cycle;Signal;HPM_P1;HPM_P2
2022/04/06 00:00:40;;;;;;;8.77;8.07;;;;;;;;;;6141779;28;21928;-69
2022/04/06 00:04:01;;;;;;;8.00;7.33;;;;;;;;;;6149574;28;20322;-69
2022/04/06 00:07:22;;;;;;;9.90;8.90;;;;;;;;;;6144978;28;20230;-69
2022/04/06 00:10:43;;;;;;;7.57;6.93;;;;;;;;;;6138028;28;20234;-69
2022/04/06 00:14:05;;;;;;;8.03;7.43;;;;;;;;;;6141046;28;20226;-69
2022/04/06 00:17:26;;;;;;;7.27;6.67;;;;;;;;;;6142463;28;20234;-70
2022/04/06 00:20:47;;;;;;;8.50;7.80;;;;;;;;;;6141676;28;20230;-70
2022/04/06 00:24:08;;;;;;;9.03;8.33;;;;;;;;;;6139190;28;20616;-69
2022/04/06 00:27:29;;;;;;;7.90;7.20;;;;;;;;;;6141735;28;20741;-69
2022/04/06 00:30:52;;;;;;;8.83;7.83;;;;;;;;;;6125966;28;20234;-70
2022/04/06 00:34:12;;;;;;;8.00;7.30;;;;;;;;;;6143287;28;20234;-70
2022/04/06 00:37:33;;;;;;;9.70;8.13;;;;;;;;;;6137567;28;20783;-71
2022/04/06 00:40:54;;;;;;;8.73;7.83;;;;;;;;;;6140827;28;20227;-70
2022/04/06 00:44:16;;;;;;;8.97;8.17;;;;;;;;;;6143853;28;20610;-70
2022/04/06 00:47:38;;;;;;;9.33;8.53;;;;;;;;;;6142172;28;20227;-70
2022/04/06 00:50:59;;;;;;;8.70;7.63;;;;;;;;;;6137232;28;20231;-71
2022/04/06 00:54:23;;;;;;;8.40;7.73;;;;;;;;;;6144363;28;20295;-69
2022/04/06 00:57:44;;;;;;;7.70;7.00;;;;;;;;;;6140500;28;20227;-70
2022/04/06 01:01:05;;;;;;;9.03;8.23;;;;;;;;;;6134057;28;20231;-70
2022/04/06 01:04:27;;;;;;;8.53;7.77;;;;;;;;;;6148480;28;20239;-70
2022/04/06 01:07:50;;;;;;;9.17;8.33;;;;;;;;;;6141078;28;20226;-69
2022/04/06 01:11:11;;;;;;;7.23;6.60;;;;;;;;;;6146373;28;20552;-70
2022/04/06 01:14:32;;;;;;;7.07;6.47;;;;;;;;;;6144420;28;20230;-71
2022/04/06 01:17:52;;;;;;;7.17;6.57;;;;;;;;;;6142568;28;20608;-69
2022/04/06 01:21:15;;;;;;;7.40;6.70;;;;;;;;;;6145300;28;20701;-70
2022/04/06 01:24:37;;;;;;;6.43;5.63;;;;;;;;;;6143494;28;20252;-70
2022/04/06 01:27:58;;;;;;;7.20;6.60;;;;;;;;;;6143014;28;20604;-70
2022/04/06 01:31:19;;;;;;;7.70;7.10;;;;;;;;;;6141753;28;20223;-71
2022/04/06 01:34:40;;;;;;;6.67;6.17;;;;;;;;;;6146796;28;20250;-70
2022/04/06 01:38:02;;;;;;;6.47;5.90;;;;;;;;;;6150595;28;20230;-70
2022/04/06 01:41:31;;;;;;;6.73;6.07;;;;;;;;;;6151551;28;20242;-69
2022/04/06 01:44:52;;;;;;;5.57;5.07;;;;;;;;;;6150892;28;20238;-70
2022/04/06 01:48:14;;;;;;;6.77;6.23;;;;;;;;;;6139633;28;20231;-69
2022/04/06 01:55:17;;;;;;;5.73;5.23;;;;;;;;;;6141847;28;20238;-69
2022/04/06 01:58:39;;;;;;;6.10;5.70;;;;;;;;;;6137324;28;21313;-69
2022/04/06 02:02:00;;;;;;;5.33;4.93;;;;;;;;;;6143049;28;20226;-70
2022/04/06 02:05:22;;;;;;;5.03;4.53;;;;;;;;;;6150563;28;20337;-69
2022/04/06 02:08:43;;;;;;;4.53;4.23;;;;;;;;;;6144971;28;20224;-70
2022/04/06 02:12:04;;;;;;;4.50;4.03;;;;;;;;;;6142511;28;20322;-69
2022/04/06 02:15:27;;;;;;;4.27;3.97;;;;;;;;;;6144415;28;21071;-70
2022/04/06 02:18:48;;;;;;;4.10;3.80;;;;;;;;;;6140060;28;20234;-69
2022/04/06 02:22:09;;;;;;;5.80;4.37;;;;;;;;;;6140167;28;20231;-70
2022/04/06 02:25:30;;;;;;;4.00;3.70;;;;;;;;;;6140241;28;20243;-71
2022/04/06 02:28:51;;;;;;;4.13;3.83;;;;;;;;;;6142911;28;20283;-69
2022/04/06 02:32:13;;;;;;;5.90;3.87;;;;;;;;;;6140871;28;20247;-69
2022/04/06 02:35:34;;;;;;;4.23;3.93;;;;;;;;;;6143609;28;20235;-69
2022/04/06 02:38:55;;;;;;;4.40;4.00;;;;;;;;;;6147009;28;20440;-69
2022/04/06 02:42:16;;;;;;;5.10;4.17;;;;;;;;;;6145441;28;20845;-70
2022/04/06 02:45:36;;;;;;;4.50;4.20;;;;;;;;;;6145413;28;20520;-71
2022/04/06 02:48:58;;;;;;;4.87;4.40;;;;;;;;;;6139162;28;20289;-70
2022/04/06 02:52:19;;;;;;;5.17;4.77;;;;;;;;;;6144506;28;20234;-70
2022/04/06 02:55:40;;;;;;;7.73;5.43;;;;;;;;;;6142021;28;20321;-70
2022/04/06 02:59:02;;;;;;;6.43;5.57;;;;;;;;;;6143901;28;20227;-70
2022/04/06 03:02:23;;;;;;;7.07;6.40;;;;;;;;;;6141939;28;20504;-70
2022/04/06 03:05:45;;;;;;;8.53;7.10;;;;;;;;;;6142758;28;20829;-70
2022/04/06 03:09:06;;;;;;;9.13;7.00;;;;;;;;;;6145247;28;20246;-70
2022/04/06 03:12:27;;;;;;;8.37;7.10;;;;;;;;;;6139330;28;20238;-69
2022/04/06 03:15:48;;;;;;;8.43;7.57;;;;;;;;;;6139576;28;20492;-70
2022/04/06 03:19:09;;;;;;;9.70;7.90;;;;;;;;;;6137667;28;20334;-70
2022/04/06 03:22:31;;;;;;;10.63;8.57;;;;;;;;;;6143145;28;20230;-71
2022/04/06 03:25:52;;;;;;;10.90;9.90;;;;;;;;;;6140450;28;22422;-70
2022/04/06 03:29:12;;;;;;;12.13;9.50;;;;;;;;;;6141069;28;20231;-70
2022/04/06 03:32:33;;;;;;;9.90;9.03;;;;;;;;;;6142221;28;21077;-68
2022/04/06 03:35:54;;;;;;;11.80;10.23;;;;;;;;;;6145041;28;20302;-70
2022/04/06 03:39:17;;;;;;;12.23;10.83;;;;;;;;;;6143602;28;20222;-69
2022/04/06 03:42:38;;;;;;;11.60;8.70;;;;;;;;;;6139378;28;20309;-69
2022/04/06 03:45:58;;;;;;;15.60;12.27;;;;;;;;;;6143510;28;20322;-70
2022/04/06 03:49:19;;;;;;;11.90;10.70;;;;;;;;;;6143820;28;20223;-70
2022/04/06 03:52:41;;;;;;;20.43;12.97;;;;;;;;;;6142013;28;20585;-70
2022/04/06 03:56:03;;;;;;;13.53;11.77;;;;;;;;;;6142180;28;20231;-69
2022/04/06 03:59:24;;;;;;;12.47;11.23;;;;;;;;;;6144096;28;20235;-69
2022/04/06 04:02:45;;;;;;;15.40;12.07;;;;;;;;;;6142348;28;20238;-70
2022/04/06 04:06:06;;;;;;;14.40;12.10;;;;;;;;;;6139311;28;20780;-69
2022/04/06 04:09:28;;;;;;;14.60;13.07;;;;;;;;;;6140110;28;20234;-69
2022/04/06 04:12:51;;;;;;;14.83;13.20;;;;;;;;;;6142435;28;20242;-70
2022/04/06 04:16:12;;;;;;;14.70;13.23;;;;;;;;;;6134948;28;20242;-69
2022/04/06 04:19:32;;;;;;;18.03;15.57;;;;;;;;;;6143357;28;20231;-70
2022/04/06 04:22:53;;;;;;;18.27;16.30;;;;;;;;;;6142973;28;20313;-69
2022/04/06 04:26:15;;;;;;;17.27;15.43;;;;;;;;;;6141666;28;20230;-69
2022/04/06 04:29:37;;;;;;;19.23;17.27;;;;;;;;;;6116218;28;20265;-69
2022/04/06 04:32:58;;;;;;;19.33;17.43;;;;;;;;;;6141415;28;20321;-69
2022/04/06 04:36:19;;;;;;;19.67;17.70;;;;;;;;;;6146488;28;20231;-70
2022/04/06 04:39:40;;;;;;;22.67;20.37;;;;;;;;;;6144170;28;20260;-70
2022/04/06 04:43:01;;;;;;;24.50;21.23;;;;;;;;;;6144490;28;20246;-69
2022/04/06 04:46:23;;;;;;;26.07;23.47;;;;;;;;;;6144942;28;23371;-70
2022/04/06 04:49:44;;;;;;;24.43;22.00;;;;;;;;;;6150047;28;20238;-70
2022/04/06 04:53:06;;;;;;;26.20;23.43;;;;;;;;;;6150971;28;20237;-70
2022/04/06 04:56:28;;;;;;;27.37;24.67;;;;;;;;;;6143767;28;20317;-70
2022/04/06 04:59:52;;;;;;;29.87;26.67;;;;;;;;;;6142330;28;20226;-70
2022/04/06 05:03:14;;;;;;;26.20;22.73;;;;;;;;;;6143123;28;20231;-70
2022/04/06 05:06:36;;;;;;;26.50;23.70;;;;;;;;;;6142747;28;20235;-70
2022/04/06 05:09:58;;;;;;;27.00;24.27;;;;;;;;;;6143666;28;20325;-70
2022/04/06 05:13:18;;;;;;;27.37;24.77;;;;;;;;;;6145963;28;20226;-70
2022/04/06 05:16:40;;;;;;;29.03;25.93;;;;;;;;;;6142044;28;20243;-68
2022/04/06 05:20:02;;;;;;;29.73;26.60;;;;;;;;;;6146844;28;20720;-69
2022/04/06 05:23:23;;;;;;;30.20;25.43;;;;;;;;;;6147681;28;20243;-70
2022/04/06 05:26:43;;;;;;;29.33;26.27;;;;;;;;;;6145058;28;20239;-70
2022/04/06 05:30:05;;;;;;;28.53;25.80;;;;;;;;;;6149618;28;20238;-71
2022/04/06 05:33:26;;;;;;;28.07;25.07;;;;;;;;;;6142591;28;20302;-70
2022/04/06 05:36:48;;;;;;;29.67;25.73;;;;;;;;;;6143735;28;20222;-70
2022/04/06 05:40:10;;;;;;;28.17;23.13;;;;;;;;;;6138723;28;21194;-69
2022/04/06 05:43:31;;;;;;;27.97;24.43;;;;;;;;;;6150308;28;20226;-70
2022/04/06 05:46:52;;;;;;;27.60;24.90;;;;;;;;;;6140885;28;20537;-69
2022/04/06 05:50:13;;;;;;;33.43;22.33;;;;;;;;;;6144227;28;20227;-70
2022/04/06 05:53:35;;;;;;;26.27;19.20;;;;;;;;;;6156247;28;20234;-70
2022/04/06 05:56:56;;;;;;;25.70;20.37;;;;;;;;;;6138603;28;20242;-71
2022/04/06 06:00:18;;;;;;;23.20;20.17;;;;;;;;;;6136721;28;20623;-70
2022/04/06 06:03:39;;;;;;;19.97;17.87;;;;;;;;;;6137625;28;20239;-68
2022/04/06 06:07:00;;;;;;;17.13;15.37;;;;;;;;;;6137998;28;20242;-69
2022/04/06 06:10:23;;;;;;;21.70;14.67;;;;;;;;;;6136987;28;20305;-69
2022/04/06 06:13:43;;;;;;;18.90;15.60;;;;;;;;;;6134856;28;20242;-70
2022/04/06 06:17:04;;;;;;;20.53;14.37;;;;;;;;;;6129862;28;20326;-69
2022/04/06 06:20:27;;;;;;;18.90;15.03;;;;;;;;;;6135659;28;20238;-69
2022/04/06 06:23:47;;;;;;;15.50;13.93;;;;;;;;;;6131960;28;20227;-69
2022/04/06 06:27:10;;;;;;;21.80;14.77;;;;;;;;;;6142271;28;20267;-70
2022/04/06 06:30:32;;;;;;;15.33;12.63;;;;;;;;;;6143501;28;20620;-68
2022/04/06 06:33:53;;;;;;;18.30;12.93;;;;;;;;;;6141984;28;20259;-69
2022/04/06 06:37:14;;;;;;;15.37;10.53;;;;;;;;;;6142979;28;20503;-69
2022/04/06 06:40:35;;;;;;;19.53;12.70;;;;;;;;;;6142066;28;20235;-70
2022/04/06 06:47:28;;;;;;;20.60;13.43;;;;;;;;;;6140114;23;20235;-70
2022/04/06 06:50:49;;;;;;;19.50;13.83;;;;;;;;;;6143171;28;20227;-70
2022/04/06 06:54:10;;;;;;;19.23;13.70;;;;;;;;;;6150973;28;20231;-69
2022/04/06 06:57:31;;;;;;;19.30;13.70;;;;;;;;;;6151786;28;20267;-68
2022/04/06 07:00:52;;;;;;;16.43;14.57;;;;;;;;;;6150315;28;20226;-70
2022/04/06 07:04:14;;;;;;;20.07;14.33;;;;;;;;;;6153790;28;20624;-69
2022/04/06 07:07:48;;;;;;;18.80;14.63;;;;;;;;;;6149899;28;20231;-69
2022/04/06 07:11:09;;;;;;;19.43;15.17;;;;;;;;;;6148353;28;20321;-70
2022/04/06 07:14:32;;;;;;;17.60;15.73;;;;;;;;;;6139705;28;20313;-69
2022/04/06 07:17:53;;;;;;;22.07;15.40;;;;;;;;;;6150250;28;20235;-71
2022/04/06 07:21:16;;;;;;;18.10;14.57;;;;;;;;;;6155303;28;20235;-71
2022/04/06 07:24:37;;;;;;;20.10;14.73;;;;;;;;;;6158774;28;20227;-70
2022/04/06 07:27:58;;;;;;;18.10;13.73;;;;;;;;;;6157135;28;20270;-70
2022/04/06 07:31:19;;;;;;;17.10;15.17;;;;;;;;;;6160457;28;20230;-71
2022/04/06 07:34:40;;;;;;;20.03;14.33;;;;;;;;;;6152198;28;20246;-71
2022/04/06 07:38:03;;;;;;;16.90;14.43;;;;;;;;;;6132948;28;20231;-72
2022/04/06 07:41:25;;;;;;;20.37;16.03;;;;;;;;;;6138108;28;20238;-74
2022/04/06 07:44:47;;;;;;;18.73;15.27;;;;;;;;;;6143416;28;20238;-74
2022/04/06 07:48:09;;;;;;;20.27;16.13;;;;;;;;;;6143945;28;20230;-73
2022/04/06 07:51:31;;;;;;;15.40;13.80;;;;;;;;;;6146733;28;20250;-74
2022/04/06 07:54:54;;;;;;;18.10;13.43;;;;;;;;;;6138141;28;20546;-73
2022/04/06 07:58:14;;;;;;;17.63;15.67;;;;;;;;;;6147515;28;20231;-73
2022/04/06 08:01:35;;;;;;;17.77;15.00;;;;;;;;;;6150355;28;20226;-72
2022/04/06 08:04:56;;;;;;;20.50;17.20;;;;;;;;;;6144696;28;20652;-73
2022/04/06 08:08:17;;;;;;;17.33;13.23;;;;;;;;;;6144936;28;20254;-72
2022/04/06 08:11:39;;;;;;;18.03;14.13;;;;;;;;;;6146390;28;20239;-72
2022/04/06 08:15:00;;;;;;;19.20;16.33;;;;;;;;;;6142851;28;20254;-74
2022/04/06 08:18:22;;;;;;;17.40;14.43;;;;;;;;;;6151875;28;20230;-73
2022/04/06 08:21:43;;;;;;;17.13;15.43;;;;;;;;;;6145951;28;20230;-73
2022/04/06 08:25:04;;;;;;;16.77;15.17;;;;;;;;;;6145028;28;20317;-73
2022/04/06 08:28:26;;;;;;;17.90;14.67;;;;;;;;;;6144979;28;20243;-72
2022/04/06 08:31:48;;;;;;;22.23;15.83;;;;;;;;;;6142843;28;20239;-74
2022/04/06 08:35:10;;;;;;;17.87;14.87;;;;;;;;;;6143673;28;20293;-74
2022/04/06 08:38:30;;;;;;;15.97;14.60;;;;;;;;;;6146906;28;20262;-73
2022/04/06 08:41:52;;;;;;;18.20;13.40;;;;;;;;;;6144478;28;20227;-73
2022/04/06 08:45:16;;;;;;;16.80;14.23;;;;;;;;;;6136640;28;20230;-73
2022/04/06 08:48:37;;;;;;;14.70;12.97;;;;;;;;;;6146480;28;20238;-73
2022/04/06 08:51:59;;;;;;;16.47;14.60;;;;;;;;;;6141838;28;20235;-73
2022/04/06 08:55:20;;;;;;;13.37;12.27;;;;;;;;;;6132819;28;20231;-72
2022/04/06 08:58:42;;;;;;;18.67;13.03;;;;;;;;;;6145392;28;20329;-72
2022/04/06 09:02:04;;;;;;;13.57;12.23;;;;;;;;;;6148130;28;20230;-72
2022/04/06 09:05:27;;;;;;;14.53;12.57;;;;;;;;;;6143868;28;20239;-72
2022/04/06 09:08:48;;;;;;;15.67;12.13;;;;;;;;;;6148181;28;20234;-73
2022/04/06 09:12:15;;;;;;;18.07;10.17;;;;;;;;;;6142770;28;20994;-72
2022/04/06 09:15:36;;;;;;;10.60;9.37;;;;;;;;;;6153917;28;20235;-71
2022/04/06 09:19:07;;;;;;;12.40;10.37;;;;;;;;;;6166851;28;20492;-72
2022/04/06 09:22:29;;;;;;;14.17;10.63;;;;;;;;;;6156198;28;20238;-72
2022/04/06 09:25:50;;;;;;;10.83;9.53;;;;;;;;;;6162099;28;20534;-72
2022/04/06 09:29:14;;;;;;;10.80;8.87;;;;;;;;;;6152189;28;20608;-72
2022/04/06 09:32:35;;;;;;;12.03;10.60;;;;;;;;;;6161582;28;20250;-72
2022/04/06 09:35:58;;;;;;;16.20;11.37;;;;;;;;;;6160017;28;20265;-71
2022/04/06 09:39:19;;;;;;;12.57;10.23;;;;;;;;;;6160195;28;20226;-72
2022/04/06 09:42:51;;;;;;;14.33;11.13;;;;;;;;;;6161802;28;20230;-71
2022/04/06 09:50:08;;;;;;;10.07;8.80;;;;;;;;;;6162008;28;20320;-72
2022/04/06 09:53:34;;;;;;;12.10;9.53;;;;;;;;;;6156165;28;20238;-72
2022/04/06 09:56:55;;;;;;;14.20;9.27;;;;;;;;;;6156378;28;20234;-72
2022/04/06 10:00:18;;;;;;;13.67;10.30;;;;;;;;;;6158146;28;20236;-71
2022/04/06 10:03:41;;;;;;;13.37;10.03;;;;;;;;;;6166199;28;20270;-73
2022/04/06 10:07:04;;;;;;;12.07;9.73;;;;;;;;;;6162625;28;20610;-71
2022/04/06 10:10:26;;;;;;;12.13;10.10;;;;;;;;;;6154040;28;20616;-72
2022/04/06 10:13:47;;;;;;;10.43;9.40;;;;;;;;;;6157930;28;20230;-72
2022/04/06 10:17:07;;;;;;;10.70;9.63;;;;;;;;;;6157822;28;20230;-72
2022/04/06 10:20:33;;;;;;;9.63;7.37;;;;;;;;;;6158206;28;20238;-71
2022/04/06 10:24:03;;;;;;;9.23;8.33;;;;;;;;;;6159306;28;20245;-72
2022/04/06 10:27:27;;;;;;;10.67;9.17;;;;;;;;;;6157869;28;20230;-73
2022/04/06 10:31:17;;;;;;;10.87;9.57;;;;;;;;;;6160173;28;20226;-72
2022/04/06 10:34:39;;;;;;;14.17;9.63;;;;;;;;;;6156894;28;20675;-73
2022/04/06 10:38:17;;;;;;;9.87;8.80;;;;;;;;;;6162212;28;20227;-73
2022/04/06 10:41:41;;;;;;;12.60;10.13;;;;;;;;;;6159049;28;20321;-73
2022/04/06 10:45:05;;;;;;;10.57;9.13;;;;;;;;;;6146449;28;20230;-73
2022/04/06 10:48:26;;;;;;;10.40;8.73;;;;;;;;;;6158384;28;22932;-73
2022/04/06 10:51:48;;;;;;;11.23;9.00;;;;;;;;;;6142659;28;21789;-73
2022/04/06 10:55:11;;;;;;;11.97;9.13;;;;;;;;;;6161697;28;20542;-73
2022/04/06 10:59:09;;;;;;;10.43;9.23;;;;;;;;;;6166103;28;20242;-71
2022/04/06 11:02:34;;;;;;;9.83;8.80;;;;;;;;;;6158877;28;20541;-73
2022/04/06 11:05:56;;;;;;;10.57;9.50;;;;;;;;;;6155815;28;20230;-72
2022/04/06 11:13:04;;;;;;;10.27;8.50;;;;;;;;;;6160507;28;20230;-73
2022/04/06 11:16:40;;;;;;;11.20;9.00;;;;;;;;;;6140270;28;20574;-72
2022/04/06 11:20:05;;;;;;;9.87;8.97;;;;;;;;;;6142286;28;20234;-73
2022/04/06 11:23:29;;;;;;;8.47;6.93;;;;;;;;;;6148821;28;20774;-72
2022/04/06 11:26:50;;;;;;;12.17;8.13;;;;;;;;;;6143949;28;20239;-72
2022/04/06 11:30:13;;;;;;;8.07;7.37;;;;;;;;;;6152288;28;20281;-72
2022/04/06 11:33:41;;;;;;;10.83;8.10;;;;;;;;;;6151064;28;20235;-73
2022/04/06 11:37:04;;;;;;;9.60;8.13;;;;;;;;;;6148258;28;20235;-72
2022/04/06 11:40:26;;;;;;;15.10;10.40;;;;;;;;;;6147480;28;20238;-73
2022/04/06 11:43:50;;;;;;;11.67;8.47;;;;;;;;;;6154477;28;20230;-72
2022/04/06 11:47:11;;;;;;;7.93;7.23;;;;;;;;;;6150381;28;20227;-74
2022/04/06 11:50:33;;;;;;;10.57;8.40;;;;;;;;;;6156426;28;20246;-72
2022/04/06 11:53:55;;;;;;;8.87;7.80;;;;;;;;;;6164926;28;20627;-72
2022/04/06 11:57:16;;;;;;;11.37;8.47;;;;;;;;;;6157695;28;20242;-71
2022/04/06 12:00:38;;;;;;;10.30;8.90;;;;;;;;;;6161439;28;20254;-72
2022/04/06 12:03:59;;;;;;;14.07;8.63;;;;;;;;;;6163691;28;20529;-73
2022/04/06 12:07:20;;;;;;;11.63;9.87;;;;;;;;;;6159039;28;20226;-72
2022/04/06 12:10:49;;;;;;;11.17;9.90;;;;;;;;;;6163653;28;20618;-72
2022/04/06 12:14:11;;;;;;;10.13;8.50;;;;;;;;;;6159419;28;20246;-73
2022/04/06 12:17:33;;;;;;;12.10;8.83;;;;;;;;;;6155368;28;20223;-72
2022/04/06 12:20:54;;;;;;;9.20;8.30;;;;;;;;;;6161211;28;20231;-72
2022/04/06 12:24:17;;;;;;;10.93;9.70;;;;;;;;;;6160790;28;20222;-72
2022/04/06 12:27:39;;;;;;;15.63;9.93;;;;;;;;;;6148342;28;20239;-74
2022/04/06 12:31:01;;;;;;;10.30;8.20;;;;;;;;;;6158194;28;20624;-73
2022/04/06 12:34:33;;;;;;;11.13;9.17;;;;;;;;;;6163528;28;20230;-72
2022/04/06 12:37:54;;;;;;;14.40;8.97;;;;;;;;;;6160234;28;20226;-72
2022/04/06 12:41:15;;;;;;;14.17;9.63;;;;;;;;;;6164970;28;20313;-71
2022/04/06 12:44:38;;;;;;;15.30;11.10;;;;;;;;;;6163626;28;20226;-72
2022/04/06 12:48:16;;;;;;;12.43;9.77;;;;;;;;;;6164162;28;20230;-72
2022/04/06 12:51:37;;;;;;;9.87;8.87;;;;;;;;;;6162099;28;20762;-72
2022/04/06 12:55:01;;;;;;;10.07;9.20;;;;;;;;;;6164519;28;20242;-72
2022/04/06 12:58:26;;;;;;;9.97;9.00;;;;;;;;;;6161397;28;20231;-72
2022/04/06 13:01:49;;;;;;;12.43;8.63;;;;;;;;;;6163079;28;20598;-72
2022/04/06 13:05:11;;;;;;;13.00;9.43;;;;;;;;;;6163029;28;20230;-74
2022/04/06 13:08:32;;;;;;;10.27;8.57;;;;;;;;;;6167339;28;20341;-73
2022/04/06 13:11:52;;;;;;;6.43;5.50;;;;;;;;;;6167987;28;20317;-73
2022/04/06 13:15:15;;;;;;;7.67;7.00;;;;;;;;;;6161018;28;20293;-72
2022/04/06 13:18:37;;;;;;;13.67;7.50;;;;;;;;;;6167546;28;20242;-72
2022/04/06 13:21:58;;;;;;;9.37;7.07;;;;;;;;;;6166427;28;22437;-72
2022/04/06 13:25:20;;;;;;;8.03;7.33;;;;;;;;;;6166062;28;20239;-72
2022/04/06 13:28:41;;;;;;;11.80;7.73;;;;;;;;;;6166484;28;20250;-73
2022/04/06 13:32:03;;;;;;;9.93;7.07;;;;;;;;;;6162831;28;20234;-73
2022/04/06 13:35:25;;;;;;;10.57;7.53;;;;;;;;;;6168626;28;20313;-72
2022/04/06 13:38:47;;;;;;;8.60;7.13;;;;;;;;;;6164992;28;20333;-74
2022/04/06 13:42:09;;;;;;;7.67;6.97;;;;;;;;;;6161394;28;20519;-73
2022/04/06 13:45:29;;;;;;;7.60;7.00;;;;;;;;;;6162335;28;20239;-72
2022/04/06 13:48:51;;;;;;;8.00;6.77;;;;;;;;;;6169510;28;20238;-73
2022/04/06 13:52:14;;;;;;;8.93;7.83;;;;;;;;;;6163452;28;20246;-72
2022/04/06 13:55:37;;;;;;;6.37;5.73;;;;;;;;;;6167633;28;20242;-72
2022/04/06 13:58:58;;;;;;;8.33;6.47;;;;;;;;;;6163804;28;20259;-73
2022/04/06 14:02:19;;;;;;;8.43;6.63;;;;;;;;;;6144806;28;20238;-73
2022/04/06 14:05:41;;;;;;;8.33;7.40;;;;;;;;;;6166895;28;20230;-72
2022/04/06 14:09:05;;;;;;;7.10;6.60;;;;;;;;;;6160167;28;20230;-73
2022/04/06 14:12:26;;;;;;;7.43;6.83;;;;;;;;;;6154417;28;20226;-73
2022/04/06 14:15:46;;;;;;;8.67;6.03;;;;;;;;;;6163712;28;20226;-71
2022/04/06 14:19:08;;;;;;;9.17;8.20;;;;;;;;;;6162641;28;20560;-74
2022/04/06 14:22:29;;;;;;;10.13;8.03;;;;;;;;;;6164551;28;20226;-72
2022/04/06 14:25:51;;;;;;;7.10;6.47;;;;;;;;;;6167146;28;20649;-72
2022/04/06 14:29:12;;;;;;;8.67;7.93;;;;;;;;;;6163032;28;20231;-73
2022/04/06 14:32:33;;;;;;;10.10;8.10;;;;;;;;;;6163278;28;20258;-73
2022/04/06 14:35:54;;;;;;;9.33;7.63;;;;;;;;;;6158026;28;20255;-73
2022/04/06 14:39:15;;;;;;;10.30;9.30;;;;;;;;;;6142034;28;20333;-73
2022/04/06 14:42:37;;;;;;;8.20;7.37;;;;;;;;;;6163840;28;20277;-73
2022/04/06 14:45:59;;;;;;;7.93;7.23;;;;;;;;;;6162679;28;20246;-73
2022/04/06 14:49:20;;;;;;;8.37;7.63;;;;;;;;;;6170537;28;20226;-73
2022/04/06 14:52:41;;;;;;;9.77;8.60;;;;;;;;;;6165121;28;20313;-72
2022/04/06 14:56:02;;;;;;;9.23;8.30;;;;;;;;;;6161947;28;20758;-73
2022/04/06 14:59:24;;;;;;;8.73;7.93;;;;;;;;;;6165506;28;20226;-73
2022/04/06 15:02:45;;;;;;;10.37;9.57;;;;;;;;;;6162084;28;20238;-73
2022/04/06 15:06:06;;;;;;;8.87;8.07;;;;;;;;;;6162210;28;20250;-73
2022/04/06 15:09:28;;;;;;;9.60;8.57;;;;;;;;;;6166574;28;20302;-74
2022/04/06 15:12:49;;;;;;;8.73;7.93;;;;;;;;;;6158963;28;20235;-72
2022/04/06 15:16:12;;;;;;;10.07;7.53;;;;;;;;;;6158799;28;20742;-74
2022/04/06 15:19:33;;;;;;;8.73;8.03;;;;;;;;;;6155305;28;20243;-73
2022/04/06 15:22:54;;;;;;;9.20;7.53;;;;;;;;;;6164264;28;20222;-72
2022/04/06 15:26:15;;;;;;;8.90;8.10;;;;;;;;;;6166167;28;20238;-72
2022/04/06 15:29:36;;;;;;;8.90;8.00;;;;;;;;;;6153875;28;20254;-73
2022/04/06 15:33:00;;;;;;;10.47;7.73;;;;;;;;;;6167502;28;20494;-72
2022/04/06 15:40:00;;;;;;;9.10;7.60;;;;;;;;;;6150966;28;20685;-74
2022/04/06 15:43:21;;;;;;;8.13;7.30;;;;;;;;;;6160770;28;20222;-73
2022/04/06 15:46:43;;;;;;;8.73;7.23;;;;;;;;;;6160523;28;20420;-73
2022/04/06 15:50:07;;;;;;;7.70;7.00;;;;;;;;;;6144913;28;20238;-72
2022/04/06 15:53:28;;;;;;;6.57;6.07;;;;;;;;;;6144311;28;20235;-71
2022/04/06 15:56:49;;;;;;;6.17;5.57;;;;;;;;;;6150164;28;20230;-72
2022/04/06 16:00:11;;;;;;;7.37;6.77;;;;;;;;;;6148682;28;20313;-72
2022/04/06 16:03:35;;;;;;;7.03;6.13;;;;;;;;;;6142252;28;20246;-71
2022/04/06 16:06:58;;;;;;;6.57;6.07;;;;;;;;;;6142724;28;20250;-75
2022/04/06 16:10:19;;;;;;;6.53;5.60;;;;;;;;;;6149272;28;20234;-72
2022/04/06 16:13:39;;;;;;;5.67;5.27;;;;;;;;;;6136268;28;20233;-72
2022/04/06 16:17:00;;;;;;;6.03;5.43;;;;;;;;;;6147307;28;20725;-72
2022/04/06 16:20:22;;;;;;;5.30;4.90;;;;;;;;;;6155087;28;20230;-73
2022/04/06 16:23:47;;;;;;;6.10;5.60;;;;;;;;;;6145290;28;20238;-73
2022/04/06 16:27:08;;;;;;;8.33;5.93;;;;;;;;;;6157016;28;20226;-72
2022/04/06 16:30:30;;;;;;;6.00;5.60;;;;;;;;;;6150430;28;20321;-73
2022/04/06 16:33:51;;;;;;;5.70;5.30;;;;;;;;;;6150315;28;20609;-73
2022/04/06 16:37:12;;;;;;;6.13;5.63;;;;;;;;;;6153946;28;21753;-74
2022/04/06 16:40:34;;;;;;;8.93;8.17;;;;;;;;;;6141776;28;20511;-73
2022/04/06 16:43:55;;;;;;;10.60;9.80;;;;;;;;;;6148756;28;20730;-74
2022/04/06 16:47:16;;;;;;;8.90;8.13;;;;;;;;;;6148500;28;20599;-74
2022/04/06 16:54:18;;;;;;;9.17;8.53;;;;;;;;;;6151609;28;20227;-75
2022/04/06 16:57:42;;;;;;;11.23;10.33;;;;;;;;;;6138566;28;20250;-73
2022/04/06 17:01:03;;;;;;;11.60;10.50;;;;;;;;;;6152496;28;20271;-74
2022/04/06 17:04:24;;;;;;;10.57;9.67;;;;;;;;;;6153244;28;20226;-73
2022/04/06 17:07:45;;;;;;;11.60;10.47;;;;;;;;;;6154814;28;20231;-73
2022/04/06 17:11:07;;;;;;;11.87;10.97;;;;;;;;;;6147922;28;20239;-74
2022/04/06 17:14:29;;;;;;;11.70;10.67;;;;;;;;;;6154357;28;20254;-73
2022/04/06 17:17:50;;;;;;;13.30;12.00;;;;;;;;;;6137359;28;20223;-73
2022/04/06 17:21:11;;;;;;;12.57;11.57;;;;;;;;;;6151507;28;20223;-74
2022/04/06 17:24:32;;;;;;;13.97;12.77;;;;;;;;;;6154447;28;20319;-74
2022/04/06 17:27:53;;;;;;;13.67;12.53;;;;;;;;;;6150891;28;20226;-74
2022/04/06 17:31:16;;;;;;;14.73;13.63;;;;;;;;;;6152823;28;20533;-74
2022/04/06 17:34:37;;;;;;;15.50;14.17;;;;;;;;;;6154082;28;20235;-73
2022/04/06 17:37:58;;;;;;;15.97;14.77;;;;;;;;;;6142583;28;20671;-73
2022/04/06 17:41:19;;;;;;;14.10;13.07;;;;;;;;;;6156110;28;20238;-74
2022/04/06 17:44:40;;;;;;;13.67;12.67;;;;;;;;;;6156231;28;20231;-73
2022/04/06 17:48:06;;;;;;;14.10;12.83;;;;;;;;;;6148160;28;20231;-73
2022/04/06 17:51:27;;;;;;;14.70;13.17;;;;;;;;;;6153497;28;20644;-73
2022/04/06 17:54:48;;;;;;;14.47;13.40;;;;;;;;;;6153763;28;20313;-74
2022/04/06 17:58:09;;;;;;;12.13;11.17;;;;;;;;;;6158161;28;20317;-73
2022/04/06 18:01:30;;;;;;;13.03;12.03;;;;;;;;;;6156089;28;20218;-74
2022/04/06 18:04:52;;;;;;;13.97;12.73;;;;;;;;;;6144879;28;20258;-73
2022/04/06 18:08:13;;;;;;;11.77;10.80;;;;;;;;;;6147485;28;20230;-73
2022/04/06 18:15:12;;;;;;;12.60;11.57;;;;;;;;;;6152236;28;20234;-74
2022/04/06 18:18:33;;;;;;;11.73;10.50;;;;;;;;;;6151626;28;20321;-75
2022/04/06 18:21:56;;;;;;;12.37;11.17;;;;;;;;;;6154858;28;20230;-74
2022/04/06 18:25:17;;;;;;;11.60;10.50;;;;;;;;;;6154154;28;20279;-74
2022/04/06 18:28:39;;;;;;;10.23;9.53;;;;;;;;;;6158771;28;20252;-75
2022/04/06 18:32:00;;;;;;;8.87;8.13;;;;;;;;;;6153125;28;20239;-75
2022/04/06 18:35:21;;;;;;;11.10;9.03;;;;;;;;;;6157921;28;20234;-75
2022/04/06 18:38:43;;;;;;;9.70;8.90;;;;;;;;;;6150073;28;20639;-75
2022/04/06 18:42:06;;;;;;;8.87;8.07;;;;;;;;;;6157004;28;20231;-75
2022/04/06 18:45:27;;;;;;;9.33;8.63;;;;;;;;;;6154011;28;20227;-74
2022/04/06 18:48:48;;;;;;;8.17;7.57;;;;;;;;;;6155616;28;20238;-75
2022/04/06 18:52:09;;;;;;;9.97;8.97;;;;;;;;;;6155133;28;20809;-74
2022/04/06 18:55:32;;;;;;;9.17;8.37;;;;;;;;;;6157003;28;20227;-74
2022/04/06 18:58:52;;;;;;;9.07;8.37;;;;;;;;;;6154243;28;20234;-75
2022/04/06 19:02:13;;;;;;;8.53;7.83;;;;;;;;;;6154091;28;20234;-74
2022/04/06 19:05:35;;;;;;;9.83;8.83;;;;;;;;;;6152262;28;20246;-74
2022/04/06 19:08:55;;;;;;;8.63;7.83;;;;;;;;;;6159153;28;20251;-74
2022/04/06 19:12:18;;;;;;;9.27;8.47;;;;;;;;;;6150378;28;20247;-74
2022/04/06 19:15:39;;;;;;;8.40;7.70;;;;;;;;;;6148967;28;20266;-73
2022/04/06 19:19:00;;;;;;;9.17;8.47;;;;;;;;;;6152864;28;20276;-72
2022/04/06 19:22:21;;;;;;;9.97;9.17;;;;;;;;;;6157621;28;20227;-74
2022/04/06 19:25:42;;;;;;;9.77;8.30;;;;;;;;;;6158975;28;20235;-73
2022/04/06 19:29:04;;;;;;;8.27;7.57;;;;;;;;;;6162196;28;20253;-74
2022/04/06 19:32:25;;;;;;;8.80;8.10;;;;;;;;;;6153137;28;20254;-72
2022/04/06 19:35:46;;;;;;;8.10;7.40;;;;;;;;;;6146816;28;20663;-72
2022/04/06 19:39:06;;;;;;;6.63;6.13;;;;;;;;;;6154006;28;20238;-73
2022/04/06 19:42:27;;;;;;;7.83;7.20;;;;;;;;;;6134692;28;20238;-74
2022/04/06 19:45:51;;;;;;;6.30;5.80;;;;;;;;;;6143456;28;20246;-74
2022/04/06 19:49:12;;;;;;;6.97;6.37;;;;;;;;;;6158870;28;20234;-74
2022/04/06 19:52:33;;;;;;;8.30;7.63;;;;;;;;;;6148787;28;20583;-74
2022/04/06 19:55:54;;;;;;;6.13;5.63;;;;;;;;;;6154783;28;20235;-72
2022/04/06 19:59:17;;;;;;;6.47;5.87;;;;;;;;;;6158798;28;20243;-73
2022/04/06 20:02:40;;;;;;;6.90;5.97;;;;;;;;;;6150640;28;20234;-72
2022/04/06 20:06:01;;;;;;;6.97;6.37;;;;;;;;;;6155970;28;20238;-73
2022/04/06 20:09:21;;;;;;;7.00;6.43;;;;;;;;;;6154489;28;20227;-74
2022/04/06 20:12:42;;;;;;;6.83;6.27;;;;;;;;;;6153373;28;20615;-75
2022/04/06 20:16:06;;;;;;;7.10;6.60;;;;;;;;;;6153196;28;20304;-72
2022/04/06 20:19:29;;;;;;;7.77;7.17;;;;;;;;;;6154750;28;20227;-73